Cancun, ROO, Mexico
Current Conditions -  °F | °C
As of 8:41 PM on Thursday 18 Dec 2014 (Local Time) from MMUN Reporting Station
Scattered Clouds Scattered Clouds  
Wind Chill: 75°   Ceiling: Unl
Heat Index: 75°   Visibility: 7mi
Dew Point: 66°   Wind: 3mph
Humidity: 73%   Direction: 70°ENE
Pressure: 30.05"   Gusts: NA
Location:  21.17°N, 86.83°W
Report Text: MMUN 190241Z 07003KT 7SM FEW020 SCT070 24/19 A3005 RMK SLP168 52010 971 8/570
Loading
Personal Weather Stations






























Interactive Weather Map New forecast layout! Learn more

10-Day Weather Forecast

Advertisements
Track Severe Weather on mobile